Kezdőlap
METAR-TAF:

METAR-TAF

Repülőterek :

Nancy, Franciaország

földrajzi szélesség: 48-41N, földrajzi hosszúság: 006-13E, magasság: 225 m

Jelenlegi meteorológiai megfigyelések

A jelentés 19 perccel ezelõtt készült, 08:30 UTC
Északkeleti szél 7 kt
Hőmérséklet 2°C
Páratartalom 87%
Légköri nyomás 1044 hPa
Látótávolság 10 km, vagy több
felhőtlen 1500 m magasságban, és nincs gomolyfelhõ

METAR: LFSN 200830Z AUTO 04007KT CAVOK 02/M00 Q1044

Idő: 09:49 (08:49 UTC)


TAF: hiányzik

Meteorológiai megfigyelések és előrejelzések több, mint 4000 repülőtéren (METAR és TAF jelentéseket).

A térképen piros és sárga pontok jelzik az elérhető meteorológiai állomásokat.

Mozgassa az egeret a pont fölött, hogy megjelenjen az állomás neve.

Azután kattintson az időjárási megfigyelések és előrejelzések megtekintéséhez.

A térkép megváltoztatása: kattintson a fekete keresztel jelölt zöld gombra ráközelítéshez, a vonallal jelölt zöld gombra távolításhoz, vagy a zöld nyilakra a szomszédos térképek eléréséhez.


METAR-TAF: